Flight Track Log - Related Links

Times and Time Zones

All times are in EDT time to prevent confusion due to time zone crossing. See the N9205P flight status page for this flight to view local times or setup timezone preferences in your user account.

Time Position Orientation Groundspeed Altitude Reporting Facility
EDT Latitude Longitude Course Direction KTS MPH feet Rate Location/Type
Mon 01:04:19 PM 43.8167 -89.8867 337° Northwest 158 182 6,400  Level Chicago Center
Mon 01:05:21 PM 43.8544 -89.9153 331° Northwest 157 181 6,300 -48 Descending Chicago Center
Mon 01:06:23 PM 43.8944 -89.9442 333° Northwest 159 183 6,300 97 Level Chicago Center
Mon 01:07:25 PM 43.9417 -89.9769 333° Northwest 159 183 6,500 97 Climbing Chicago Center
Mon 01:08:27 PM 43.9822 -90.0036 335° Northwest 160 184 6,500 -48 Level Chicago Center
Mon 01:09:00 PM 44.1953 -90.4029 337° Northwest  Level Estimated
Mon 01:09:29 PM 44.0208 -90.0325 332° Northwest 159 183 6,400  Level Chicago Center
Mon 01:10:31 PM 44.0589 -90.0622 331° Northwest 159 183 6,500 48 Climbing Chicago Center
Mon 01:11:33 PM 44.1006 -90.0864 337° Northwest 159 183 6,500  Level Chicago Center
Mon 01:12:36 PM 44.1436 -90.1083 340° North 161 185 6,500 -96 Level Chicago Center
Mon 01:13:38 PM 44.1972 -90.1342 341° North 164 189 6,300  Descending Chicago Center
Mon 01:14:42 PM 44.2419 -90.1531 343° North 164 189 6,500 95 Climbing Minneapolis Center
Mon 01:15:44 PM 44.2844 -90.1756 339° North 158 182 6,500  Level Minneapolis Center
Mon 01:16:46 PM 44.3256 -90.2069 331° Northwest 160 184 6,500  Level Minneapolis Center
Mon 01:17:48 PM 44.3689 -90.2356 335° Northwest 164 189 6,500  Level Minneapolis Center
Mon 01:18:50 PM 44.4097 -90.2661 332° Northwest 161 185 6,500 -48 Level Minneapolis Center
Mon 01:19:52 PM 44.4506 -90.2925 335° Northwest 156 180 6,400  Descending Minneapolis Center
Mon 01:20:54 PM 44.4900 -90.3178 335° Northwest 160 184 6,500 48 Climbing Minneapolis Center
Mon 01:21:56 PM 44.5281 -90.3522 327° Northwest 156 180 6,500  Level Minneapolis Center
Mon 01:22:58 PM 44.5694 -90.3789 335° Northwest 158 182 6,500  Level Minneapolis Center
Mon 01:24:01 PM 44.6128 -90.4042 337° Northwest 160 184 6,500 -48 Level Minneapolis Center
Mon 01:25:03 PM 44.6547 -90.4317 335° Northwest 159 183 6,400 -97 Descending Minneapolis Center
Mon 01:26:05 PM 44.6967 -90.4600 334° Northwest 160 184 6,300 48 Descending Minneapolis Center
Mon 01:27:07 PM 44.7378 -90.4892 333° Northwest 158 182 6,500  Climbing Minneapolis Center
Mon 01:28:09 PM 44.7756 -90.5147 334° Northwest 156 180 6,300 -145 Descending Minneapolis Center
Mon 01:29:11 PM 44.8181 -90.5414 336° Northwest 159 183 6,200 48 Descending Minneapolis Center
Mon 01:30:13 PM 44.8603 -90.5675 336° Northwest 159 183 6,400 48 Climbing Minneapolis Center
Mon 01:31:15 PM 44.8983 -90.5967 332° Northwest 150 173 6,300 -48 Descending Minneapolis Center
Mon 01:32:17 PM 44.9381 -90.6247 333° Northwest 153 176 6,300 -48 Level Minneapolis Center
Mon 01:33:19 PM 44.9794 -90.6514 336° Northwest 157 181 6,200  Descending Minneapolis Center
Mon 01:34:21 PM 45.0217 -90.6772 337° Northwest 157 181 6,300 48 Climbing Minneapolis Center
Mon 01:35:23 PM 45.0589 -90.7031 334° Northwest 156 180 6,300 -17 Level Minneapolis Center
Mon 01:37:00 PM 45.1109 -90.7591 323° Northwest  Level FlightAware Approximate
Mon 01:40:21 PM 45.2575 -90.8406 332° Northwest 158 182 6,200  Level Minneapolis Center
Mon 01:41:23 PM 45.2972 -90.8711 332° Northwest 159 183 6,200 97 Level Minneapolis Center
Mon 01:42:25 PM 45.3364 -90.9019 331° Northwest 160 184 6,400 48 Climbing Minneapolis Center
Mon 01:43:27 PM 45.3758 -90.9342 330° Northwest 161 185 6,300  Descending Minneapolis Center
Mon 01:44:00 PM 45.3554 -90.9647 335° Northwest  Level FlightAware Approximate
Mon 01:44:29 PM 45.4144 -90.9639 332° Northwest 160 184 6,400  Level Minneapolis Center
Mon 01:45:00 PM 45.3918 -90.9896 332° Northwest  Level FlightAware Approximate
Mon 01:45:31 PM 45.4533 -90.9953 330° Northwest 160 184 6,400  Level Minneapolis Center
Mon 01:46:33 PM 45.5000 -91.0319 331° Northwest 160 184 6,500 48 Climbing Minneapolis Center
Mon 01:47:35 PM 45.5400 -91.0619 332° Northwest 162 186 6,500 -48 Level Minneapolis Center
Mon 01:48:37 PM 45.5800 -91.0942 331° Northwest 163 188 6,400 -48 Descending Minneapolis Center
Mon 01:49:39 PM 45.6203 -91.1292 329° Northwest 166 191 6,400 48 Level Minneapolis Center
Mon 01:50:41 PM 45.6597 -91.1614 330° Northwest 166 191 6,500 97 Climbing Minneapolis Center
Mon 01:51:43 PM 45.6989 -91.1928 331° Northwest 163 188 6,600 48 Climbing Minneapolis Center
Mon 01:52:45 PM 45.7411 -91.2231 333° Northwest 165 190 6,600  Level Minneapolis Center
Mon 01:53:47 PM 45.7914 -91.2614 332° Northwest 169 194 6,600 48 Level Minneapolis Center
Mon 01:54:49 PM 45.8344 -91.2867 338° Northwest 168 193 6,700 48 Climbing Minneapolis Center
Mon 01:55:51 PM 45.8744 -91.3128 336° Northwest 164 189 6,700 -48 Level Minneapolis Center
Mon 01:56:53 PM 45.9111 -91.3428 330° Northwest 155 178 6,600 -97 Descending Minneapolis Center
Mon 01:57:55 PM 45.9522 -91.3733 333° Northwest 159 183 6,500 -48 Descending Minneapolis Center
Mon 01:58:57 PM 45.9928 -91.4042 332° Northwest 163 188 6,500  Level Minneapolis Center
Mon 02:00:04 PM 46.0300 -91.4433 324° Northwest 156 180 6,500  Level Minneapolis Center
Mon 02:01:06 PM 46.0636 -91.4742 328° Northwest 149 171 6,500 48 Level Minneapolis Center
Mon 02:02:08 PM 46.1075 -91.5003 338° Northwest 151 174 6,600  Climbing Minneapolis Center
Mon 02:03:10 PM 46.1497 -91.5344 331° Northwest 159 183 6,500 -48 Descending Minneapolis Center
Mon 02:04:12 PM 46.1894 -91.5644 332° Northwest 152 175 6,500  Level Minneapolis Center
Mon 02:05:13 PM 46.2253 -91.5867 337° Northwest 155 178 6,500  Level Minneapolis Center
Mon 02:06:15 PM 46.2650 -91.6169 332° Northwest 158 182 6,500  Level Minneapolis Center
Mon 02:07:17 PM 46.3028 -91.6453 333° Northwest 158 182 6,500 -97 Level Minneapolis Center
Mon 02:08:19 PM 46.3467 -91.6803 331° Northwest 153 176 6,300 -97 Descending Minneapolis Center
Mon 02:09:21 PM 46.3842 -91.7061 335° Northwest 151 174 6,300  Level Minneapolis Center
Mon 02:10:23 PM 46.4219 -91.7322 335° Northwest 150 173 6,300  Level Minneapolis Center
Mon 02:11:25 PM 46.4594 -91.7589 334° Northwest 151 174 6,300  Level Minneapolis Center
Mon 02:12:27 PM 46.4969 -91.7842 335° Northwest 150 173 6,300  Level Minneapolis Center
Mon 02:13:29 PM 46.5342 -91.8106 334° Northwest 150 173 6,300 48 Level Minneapolis Center
Mon 02:14:31 PM 46.5786 -91.8439 333° Northwest 150 173 6,400 48 Climbing Minneapolis Center
Mon 02:15:33 PM 46.6153 -91.8708 333° Northwest 149 171 6,400 97 Level Minneapolis Center
Mon 02:16:35 PM 46.6528 -91.8967 335° Northwest 149 171 6,600 97 Climbing Minneapolis Center
Mon 02:17:37 PM 46.6892 -91.9244 332° Northwest 148 170 6,600  Level Minneapolis Center
Mon 02:18:39 PM 46.7225 -91.9556 327° Northwest 147 169 6,600  Level Minneapolis Center
Mon 02:19:41 PM 46.7542 -91.9919 322° Northwest 146 168 6,600  Level Minneapolis Center
Mon 02:20:43 PM 46.7900 -92.0364 320° Northwest 144 166 6,600  Level Minneapolis Center
Mon 02:21:45 PM 46.8206 -92.0733 320° Northwest 142 163 6,600  Level Minneapolis Center
Mon 02:22:47 PM 46.8564 -92.1031 330° Northwest 144 166 6,600 -48 Level Minneapolis Center
Mon 02:23:49 PM 46.8919 -92.1300 333° Northwest 145 167 6,500 -145 Descending Minneapolis Center
Mon 02:24:51 PM 46.9286 -92.1592 331° Northwest 147 169 6,300 -97 Descending Minneapolis Center
Mon 02:25:53 PM 46.9628 -92.1911 327° Northwest 147 169 6,300  Level Minneapolis Center
Mon 02:26:55 PM 47.0025 -92.2303 326° Northwest 146 168 6,300  Level Minneapolis Center
Mon 02:27:57 PM 47.0378 -92.2592 331° Northwest 145 167 6,300  Level Minneapolis Center
Mon 02:28:59 PM 47.0733 -92.2861 333° Northwest 145 167 6,300  Level Minneapolis Center
Mon 02:30:01 PM 47.1119 -92.3075 339° North 145 167 6,300  Level Minneapolis Center
Mon 02:31:03 PM 47.1514 -92.3283 340° North 148 170 6,300 48 Level Minneapolis Center
Mon 02:32:05 PM 47.1942 -92.3603 333° Northwest 147 169 6,400  Climbing Minneapolis Center
Mon 02:33:07 PM 47.2308 -92.3886 332° Northwest 148 170 6,300 -48 Descending Minneapolis Center
Mon 02:34:09 PM 47.2667 -92.4150 333° Northwest 146 168 6,300  Level Minneapolis Center
Mon 02:35:11 PM 47.3019 -92.4436 331° Northwest 146 168 6,300  Level Minneapolis Center
Mon 02:36:13 PM 47.3369 -92.4708 332° Northwest 144 166 6,300  Level Minneapolis Center
Mon 02:37:15 PM 47.3725 -92.4978 333° Northwest 144 166 6,300  Level Minneapolis Center
Mon 02:38:17 PM 47.4158 -92.5306 333° Northwest 145 167 6,300  Level Minneapolis Center
Mon 02:39:19 PM 47.4522 -92.5544 336° Northwest 145 167 6,300  Level Minneapolis Center
Mon 02:40:21 PM 47.4892 -92.5778 337° Northwest 145 167 6,300  Level Minneapolis Center
Mon 02:41:23 PM 47.5250 -92.6025 335° Northwest 144 166 6,300  Level Minneapolis Center
Mon 02:43:00 PM 47.5866 -92.5673 21° North  Level FlightAware Approximate
Mon 02:50:00 PM 47.8167 -92.6833 North  Level FlightAware Approximate
Mon 02:51:00 PM 47.8221 -92.6905 North  Level Estimated
Mon 02:52:00 PM 47.8221 -92.6905 North  Level Estimated
Mon 02:53:00 PM 47.8221 -92.6905 North  Level Estimated
Mon 02:54:00 PM 47.8221 -92.6905 North  Level Estimated
Mon 02:55:00 PM 47.8221 -92.6905 North  Level Estimated
Mon 02:56:00 PM 47.8221 -92.6905 North  Level Estimated
Mon 02:57:00 PM 47.8221 -92.6905 North  Level Estimated
Mon 02:58:00 PM 47.8221 -92.6905 North  Level Estimated
Mon 02:59:00 PM 47.8221 -92.6905 North  Level Estimated
Mon 03:00:00 PM 47.8221 -92.6905 North  Level Estimated
Mon 03:01:00 PM 47.8221 -92.6905 North  Level Estimated
Mon 03:02:00 PM 47.8221 -92.6905 North  Level Estimated
Mon 03:03:00 PM 47.8221 -92.6905 North  Level Estimated
Mon 03:04:00 PM 47.8221 -92.6905 North  Level Estimated
Mon 03:05:00 PM 47.8221 -92.6905 North  Level Estimated

Login

Don't have an account? Register now (free) for customized features, flight alerts, and more!